This is the latest recevied weather packets stored in our database for station/object HK4D-13. If no packets are shown the sender has not sent any weather packets the latest 1 day(s).
| Time | Temp. | Humidity | Pressure | Rain* | Wind** | Luminosity | Snow |
|---|---|---|---|---|---|---|---|
| 1778099678 | 22.22° C | 48% | 1010 hPa | 0 mm | - | - | - |
| 1778098473 | 22.22° C | 52% | 1010 hPa | 0 mm | - | - | - |
| 1778095468 | 21.67° C | 55% | 1011 hPa | 0 mm | - | - | - |
| 1778091853 | 21.11° C | 60% | 1012 hPa | 0 mm | - | - | - |
| 1778090051 | 20° C | 65% | 1012 hPa | 0 mm | - | - | - |
| 1778087046 | 18.89° C | 70% | 1013 hPa | 0 mm | - | - | - |
| 1778085845 | 18.89° C | 70% | 1013 hPa | 0 mm | - | - | - |
| 1778084042 | 18.89° C | 72% | 1014 hPa | 0 mm | - | - | - |
| 1778083440 | 18.89° C | 72% | 1014 hPa | 0 mm | - | - | - |
| 1778082238 | 18.89° C | 72% | 1015 hPa | 0 mm | - | - | - |
| 1778081034 | 18.89° C | 72% | 1016 hPa | 0 mm | - | - | - |
| 1778078027 | 15° C | 93% | 1016 hPa | 0 mm | - | - | - |
| 1778075021 | 15° C | 95% | 1016 hPa | 0 mm | - | - | - |
| 1778073820 | 14.44° C | 96% | 1017 hPa | 0 mm | - | - | - |
| 1778072619 | 14.44° C | 97% | 1017 hPa | 0 mm | - | - | - |
| 1778071418 | 14.44° C | 97% | 1017 hPa | 0 mm | - | - | - |
| 1778069615 | 14.44° C | 97% | 1017 hPa | 0 mm | - | - | - |
| 1778069015 | 14.44° C | 98% | 1017 hPa | 0 mm | - | - | - |
| 1778066610 | 14.44° C | 97% | 1017 hPa | 0 mm | - | - | - |
| 1778064808 | 14.44° C | 96% | 1017 hPa | 0 mm | - | - | - |
| 1778063004 | 13.89° C | 97% | 1016 hPa | 0 mm | - | - | - |
| 1778061803 | 13.89° C | 97% | 1016 hPa | 0 mm | - | - | - |
| 1778060601 | 13.89° C | 97% | 1016 hPa | 0 mm | - | - | - |
| 1778060001 | 15° C | 97% | 1016 hPa | 0 mm | - | - | - |
| 1778059400 | 15° C | 97% | 1016 hPa | 0 mm | - | - | - |
* Rain latest hour (hover to see other rain measurements)
** Current wind speed in m/s (hover to see current wind gust speed)